Time;durP1;ratioP1;P1;durP2;ratioP2;P2;SDS_P1;SDS_P2;PMS_P1;PMS_P2;Temp;Humidity;BMP_temperature;BMP_pressure;BME280_temperature;BME280_humidity;BME280_pressure;Samples;Min_cycle;Max_cycle;Signal;HPM_P1;HPM_P2
2023/09/24 00:02:19;;;;;;;17.48;6.25;;;;;;;23.03;67.65;65419.44;5052819;28;20305;-51
2023/09/24 00:04:45;;;;;;;18.45;5.88;;;;;;;23.04;67.52;65415.97;5052656;28;20581;-57
2023/09/24 00:07:10;;;;;;;19.90;5.20;;;;;;;22.95;68.14;65405.44;5051348;28;20213;-55
2023/09/24 00:09:37;;;;;;;18.15;5.22;;;;;;;22.90;67.26;65403.06;5034767;28;20228;-52
2023/09/24 00:12:04;;;;;;;26.77;6.38;;;;;;;22.85;68.82;65400.06;5052298;28;20690;-52
2023/09/24 00:14:30;;;;;;;19.90;6.65;;;;;;;22.71;69.35;65382.00;5034864;28;20204;-53
2023/09/24 00:16:57;;;;;;;19.23;6.20;;;;;;;22.76;67.75;65384.97;5052703;28;20596;-55
2023/09/24 00:19:24;;;;;;;18.23;5.22;;;;;;;22.86;67.13;65398.63;5052597;28;20233;-54
2023/09/24 00:21:50;;;;;;;18.33;5.63;;;;;;;22.71;68.46;65376.28;5052990;28;20295;-53
2023/09/24 00:24:17;;;;;;;18.17;4.80;;;;;;;22.67;68.84;65374.44;5034479;28;20648;-57
2023/09/24 00:26:43;;;;;;;16.50;6.13;;;;;;;22.52;69.22;65364.06;5034516;28;20228;-52
2023/09/24 00:29:11;;;;;;;21.52;6.03;;;;;;;22.48;69.54;65357.06;5053084;28;20248;-54
2023/09/24 00:31:37;;;;;;;25.10;5.93;;;;;;;22.43;69.50;65353.53;5050845;28;20289;-52
2023/09/24 00:34:03;;;;;;;20.05;5.43;;;;;;;22.33;70.27;65343.03;5033939;28;20292;-52
2023/09/24 00:36:28;;;;;;;23.48;5.68;;;;;;;22.38;70.00;65342.88;5052174;28;20313;-52
2023/09/24 00:38:54;;;;;;;25.88;6.28;;;;;;;22.45;69.29;65355.75;5052769;28;20294;-56
2023/09/24 00:41:20;;;;;;;16.13;5.43;;;;;;;22.31;69.07;65338.25;5052032;28;20205;-53
2023/09/24 00:43:46;;;;;;;16.80;5.63;;;;;;;22.40;69.66;65347.66;5052498;28;20205;-51
2023/09/24 00:46:14;;;;;;;18.42;6.32;;;;;;;22.46;69.12;65354.84;5052643;28;20193;-54
2023/09/24 00:48:39;;;;;;;24.58;6.13;;;;;;;22.46;69.59;65356.88;5034602;28;20221;-51
2023/09/24 00:51:22;;;;;;;22.13;6.38;;;;;;;22.34;70.36;65338.44;5052160;28;20194;-51
2023/09/24 00:53:51;;;;;;;26.17;6.20;;;;;;;22.36;70.06;65341.22;5052682;28;20209;-52
2023/09/24 00:56:17;;;;;;;14.88;5.82;;;;;;;22.28;70.86;65336.94;5033735;28;20213;-59
2023/09/24 00:58:46;;;;;;;18.10;5.35;;;;;;;22.24;71.92;65329.94;5052045;28;20280;-55
2023/09/24 01:01:12;;;;;;;23.80;6.22;;;;;;;22.47;71.06;65355.41;5051195;28;20259;-54
2023/09/24 01:03:40;;;;;;;17.85;5.50;;;;;;;22.36;71.36;65343.78;5033677;28;20202;-52
2023/09/24 01:06:06;;;;;;;18.25;4.78;;;;;;;22.36;71.73;65340.66;5035020;28;20279;-53
2023/09/24 01:08:33;;;;;;;20.20;5.60;;;;;;;22.40;71.85;65345.09;5033299;28;20279;-54
2023/09/24 01:11:01;;;;;;;21.08;5.32;;;;;;;22.28;70.46;65331.81;5051297;28;20201;-56
2023/09/24 01:13:48;;;;;;;21.75;6.07;;;;;;;22.13;71.35;65318.31;5053892;28;20213;-52
2023/09/24 01:16:13;;;;;;;17.13;5.65;;;;;;;22.17;71.89;65325.31;5050609;28;20213;-52
2023/09/24 01:18:41;;;;;;;26.58;6.05;;;;;;;22.13;71.28;65320.34;5051328;28;20649;-51
2023/09/24 01:21:11;;;;;;;20.40;6.35;;;;;;;22.15;71.41;65320.53;5051043;28;20201;-53
2023/09/24 01:23:38;;;;;;;18.73;6.18;;;;;;;22.06;72.09;65310.56;5052238;28;20261;-54
2023/09/24 01:26:03;;;;;;;27.48;5.82;;;;;;;22.13;72.50;65317.78;5050597;28;20209;-54
2023/09/24 01:28:30;;;;;;;22.20;6.80;;;;;;;22.11;72.37;65313.00;5051281;28;20213;-53
2023/09/24 01:30:57;;;;;;;13.05;5.45;;;;;;;22.07;71.84;65311.69;5033609;28;20206;-54
2023/09/24 01:33:23;;;;;;;27.52;5.70;;;;;;;21.99;72.11;65300.28;5033854;28;20323;-51
2023/09/24 01:35:49;;;;;;;16.00;5.68;;;;;;;21.97;74.33;65300.06;5050794;28;20197;-53
2023/09/24 01:38:16;;;;;;;18.35;6.00;;;;;;;21.95;75.37;65300.97;5032859;28;20259;-52
2023/09/24 01:40:42;;;;;;;15.38;5.57;;;;;;;21.96;76.90;65299.50;5032337;28;20633;-55
2023/09/24 01:43:08;;;;;;;13.98;4.90;;;;;;;21.89;74.79;65291.78;5051282;28;20759;-51
2023/09/24 01:45:38;;;;;;;20.45;5.65;;;;;;;22.01;75.23;65307.06;5051959;28;20536;-54
2023/09/24 01:48:04;;;;;;;25.08;6.45;;;;;;;22.09;73.49;65311.34;5049801;28;20213;-52
2023/09/24 01:50:32;;;;;;;19.88;5.75;;;;;;;22.16;73.75;65319.06;5016499;28;20193;-55
2023/09/24 01:52:59;;;;;;;18.75;5.60;;;;;;;22.08;75.04;65310.22;5051544;28;20223;-52
2023/09/24 01:55:25;;;;;;;19.73;6.28;;;;;;;21.80;74.03;65281.78;5032808;28;20189;-53
2023/09/24 01:57:51;;;;;;;18.05;6.45;;;;;;;21.74;74.65;65275.69;5051272;28;20233;-53
2023/09/24 02:00:21;;;;;;;14.45;5.38;;;;;;;21.74;75.44;65275.69;5051516;28;20281;-53
2023/09/24 02:03:01;;;;;;;16.17;5.40;;;;;;;21.85;73.62;65284.78;5050953;28;20312;-52
2023/09/24 02:05:35;;;;;;;18.88;5.32;;;;;;;21.56;77.65;65255.22;5031536;28;20181;-51
2023/09/24 02:08:08;;;;;;;29.00;7.18;;;;;;;21.50;77.89;65251.72;5047623;28;20217;-51
2023/09/24 02:10:38;;;;;;;26.17;5.80;;;;;;;21.77;75.52;65276.44;5049165;28;20197;-52
2023/09/24 02:13:03;;;;;;;16.92;6.13;;;;;;;21.75;77.00;65274.22;5049674;28;20699;-50
2023/09/24 02:15:29;;;;;;;18.95;5.80;;;;;;;21.78;75.05;65279.56;5052339;28;20208;-50
2023/09/24 02:17:54;;;;;;;24.85;6.25;;;;;;;21.71;74.76;65274.41;5052626;28;20226;-52
2023/09/24 02:22:58;;;;;;;16.15;5.25;;;;;;;21.47;76.27;65247.84;5052452;28;20247;-52
2023/09/24 02:25:26;;;;;;;16.25;5.75;;;;;;;21.34;77.35;65230.91;5052550;28;20885;-52
2023/09/24 02:27:53;;;;;;;16.40;6.35;;;;;;;21.41;77.32;65241.22;5052523;28;20236;-53
2023/09/24 02:30:20;;;;;;;21.90;5.70;;;;;;;21.36;77.47;65233.09;5052446;28;20180;-54
2023/09/24 02:32:47;;;;;;;22.33;5.75;;;;;;;21.33;77.80;65227.78;5052618;28;20205;-51
2023/09/24 02:35:14;;;;;;;24.33;5.57;;;;;;;21.24;77.81;65220.41;5052199;28;20197;-50
2023/09/24 02:37:45;;;;;;;19.30;5.80;;;;;;;21.20;78.41;65215.97;5052441;28;20217;-52
2023/09/24 02:40:15;;;;;;;12.20;5.53;;;;;;;21.27;78.49;65223.69;5052141;28;20773;-52
2023/09/24 02:42:48;;;;;;;21.35;5.78;;;;;;;21.24;78.57;65222.97;5034226;28;20240;-52
2023/09/24 02:45:17;;;;;;;16.80;5.50;;;;;;;21.15;79.71;65210.44;5052388;28;20189;-53
2023/09/24 02:47:50;;;;;;;19.58;5.70;;;;;;;21.00;80.56;65196.41;5034580;28;20205;-52
2023/09/24 02:50:22;;;;;;;17.15;5.75;;;;;;;20.89;81.27;65182.22;5052368;28;20266;-52
2023/09/24 02:52:49;;;;;;;19.95;5.55;;;;;;;20.88;81.15;65180.56;5052178;28;20201;-53
2023/09/24 02:55:15;;;;;;;21.27;5.45;;;;;;;20.83;81.81;65175.03;5052045;28;20206;-58
2023/09/24 02:57:43;;;;;;;17.70;5.43;;;;;;;20.79;82.29;65168.03;5034188;28;20225;-52
2023/09/24 03:00:27;;;;;;;22.02;5.75;;;;;;;20.80;82.67;65174.28;5034114;28;20277;-54
2023/09/24 03:02:55;;;;;;;15.27;5.70;;;;;;;20.84;81.97;65178.72;5052138;28;20217;-52
2023/09/24 03:05:24;;;;;;;22.45;6.32;;;;;;;20.91;80.97;65186.44;5051627;28;20206;-54
2023/09/24 03:07:52;;;;;;;23.85;6.25;;;;;;;20.83;81.97;65172.47;5052377;28;20256;-52
2023/09/24 03:10:19;;;;;;;18.00;5.60;;;;;;;20.94;81.81;65189.75;5052841;28;20216;-51
2023/09/24 03:12:50;;;;;;;14.52;4.80;;;;;;;20.98;80.74;65189.06;5036845;28;20319;-53
2023/09/24 03:15:17;;;;;;;19.60;5.97;;;;;;;21.05;79.46;65196.81;5053404;28;20484;-58
2023/09/24 03:17:46;;;;;;;18.67;5.95;;;;;;;21.04;80.79;65195.72;5053980;28;20217;-52
2023/09/24 03:20:15;;;;;;;18.45;5.40;;;;;;;21.08;80.57;65200.13;5053201;28;20740;-55
2023/09/24 03:22:48;;;;;;;17.27;5.32;;;;;;;21.18;79.33;65213.75;5035464;28;20611;-56
2023/09/24 03:25:19;;;;;;;18.75;4.95;;;;;;;21.30;77.70;65227.03;5052292;28;20206;-51
2023/09/24 03:27:48;;;;;;;18.73;5.43;;;;;;;21.22;79.82;65218.19;5053715;28;20212;-54
2023/09/24 03:30:17;;;;;;;18.55;6.07;;;;;;;21.28;79.33;65224.81;5054388;28;20194;-54
2023/09/24 03:32:48;;;;;;;23.20;5.57;;;;;;;21.28;79.45;65224.81;5036114;28;20217;-57
2023/09/24 03:35:19;;;;;;;16.77;5.95;;;;;;;21.28;79.18;65221.69;5053572;28;20190;-51
2023/09/24 03:37:45;;;;;;;21.48;6.20;;;;;;;21.37;78.08;65231.66;5054356;28;20246;-54
2023/09/24 03:40:17;;;;;;;17.08;5.15;;;;;;;21.33;79.53;65227.22;5053797;28;20284;-54
2023/09/24 03:42:44;;;;;;;21.35;6.20;;;;;;;21.34;79.10;65234.03;5035508;28;20255;-52
2023/09/24 03:45:14;;;;;;;18.73;5.32;;;;;;;21.30;80.16;65226.47;5053617;28;20205;-52
2023/09/24 03:47:42;;;;;;;16.75;5.28;;;;;;;21.16;81.47;65211.53;5052792;28;20664;-52
2023/09/24 03:50:16;;;;;;;19.30;5.80;;;;;;;21.15;81.58;65207.88;5052482;28;20239;-55
2023/09/24 03:52:47;;;;;;;16.23;5.65;;;;;;;21.15;82.67;65213.00;5035063;28;20592;-55
2023/09/24 03:55:16;;;;;;;18.98;6.35;;;;;;;21.07;83.31;65198.47;5052835;28;20201;-52
2023/09/24 03:57:42;;;;;;;18.70;6.40;;;;;;;20.98;84.71;65191.63;5033733;28;20613;-55
2023/09/24 04:00:15;;;;;;;18.27;5.70;;;;;;;20.81;85.77;65172.81;5053317;28;20224;-52
2023/09/24 04:02:47;;;;;;;19.42;6.32;;;;;;;20.78;86.63;65170.06;5035127;28;20229;-54
2023/09/24 04:05:17;;;;;;;17.55;5.82;;;;;;;20.63;87.69;65150.91;5035126;28;20209;-52
2023/09/24 04:07:49;;;;;;;18.13;6.28;;;;;;;20.72;87.74;65162.88;5052927;28;20658;-52
2023/09/24 04:10:17;;;;;;;13.55;6.22;;;;;;;20.92;87.02;65187.56;5052020;28;20193;-56
2023/09/24 04:12:46;;;;;;;20.70;5.90;;;;;;;20.88;87.09;65180.56;5036203;28;20217;-56
2023/09/24 04:15:12;;;;;;;14.95;5.40;;;;;;;20.82;87.23;65174.50;5052656;28;20197;-56
2023/09/24 04:17:39;;;;;;;18.35;5.70;;;;;;;20.90;87.39;65180.78;5053222;28;20224;-53
2023/09/24 04:20:07;;;;;;;19.92;6.10;;;;;;;20.79;88.84;65171.16;5035264;28;20208;-52
2023/09/24 04:22:33;;;;;;;24.77;8.23;;;;;;;20.43;90.69;65128.81;5054236;28;20293;-52
2023/09/24 04:24:59;;;;;;;21.65;7.70;;;;;;;20.26;91.78;65112.06;5052541;28;20188;-51
2023/09/24 04:27:25;;;;;;;17.30;7.03;;;;;;;20.31;91.87;65118.13;5034774;28;20295;-56
2023/09/24 04:29:51;;;;;;;22.48;6.80;;;;;;;20.32;92.34;65119.22;5052350;28;20699;-52
2023/09/24 04:32:17;;;;;;;16.75;7.68;;;;;;;20.17;92.61;65102.63;5051684;28;20707;-51
2023/09/24 04:34:46;;;;;;;16.98;7.88;;;;;;;20.08;92.09;65090.13;5051495;28;20186;-55
2023/09/24 04:37:12;;;;;;;21.42;7.28;;;;;;;20.04;92.49;65088.25;5050980;28;20221;-54
2023/09/24 04:39:38;;;;;;;22.65;7.88;;;;;;;19.91;93.07;65074.47;5051347;28;20671;-55
2023/09/24 04:42:06;;;;;;;21.08;7.72;;;;;;;19.95;92.20;65078.34;5051408;28;20289;-55
2023/09/24 04:44:32;;;;;;;22.17;7.38;;;;;;;19.89;91.97;65072.25;5050608;28;20255;-56
2023/09/24 04:46:57;;;;;;;22.83;6.50;;;;;;;19.94;90.69;65080.34;5051219;28;20658;-52
2023/09/24 04:49:23;;;;;;;20.95;7.05;;;;;;;19.87;91.73;65070.06;5050655;28;20720;-51
2023/09/24 04:51:50;;;;;;;19.80;7.50;;;;;;;19.85;91.54;65067.84;5051158;28;20209;-51
2023/09/24 04:54:16;;;;;;;25.63;7.43;;;;;;;19.92;90.41;65075.00;5051028;28;20598;-54
2023/09/24 04:56:42;;;;;;;22.42;6.97;;;;;;;19.83;91.14;65068.19;5051180;28;20216;-55
2023/09/24 04:59:08;;;;;;;19.00;7.45;;;;;;;19.82;91.96;65064.53;5052219;28;20201;-56
2023/09/24 05:01:34;;;;;;;22.48;6.47;;;;;;;19.78;90.87;65060.09;5052219;28;20682;-51
2023/09/24 05:04:00;;;;;;;23.75;7.18;;;;;;;19.71;91.45;65049.81;5051577;28;20701;-52
2023/09/24 05:06:27;;;;;;;25.33;6.97;;;;;;;19.70;92.27;65053.28;5050914;28;20206;-55
2023/09/24 05:08:53;;;;;;;26.48;8.20;;;;;;;19.68;92.81;65048.50;5032313;28;20221;-55
2023/09/24 05:11:18;;;;;;;24.23;6.45;;;;;;;19.67;91.82;65047.97;5032152;28;20201;-55
2023/09/24 05:13:44;;;;;;;22.38;6.25;;;;;;;19.66;91.44;65049.41;5050530;28;20215;-51
2023/09/24 05:16:09;;;;;;;19.65;6.88;;;;;;;19.68;92.17;65051.63;5051015;28;20200;-50
2023/09/24 05:18:36;;;;;;;19.85;6.55;;;;;;;19.74;90.90;65058.25;5051124;28;20292;-53
2023/09/24 05:21:03;;;;;;;19.52;7.30;;;;;;;19.83;90.54;65065.63;5051121;28;20205;-55
2023/09/24 05:23:29;;;;;;;20.70;7.32;;;;;;;19.85;90.33;65067.84;5051031;28;20208;-52
2023/09/24 05:25:54;;;;;;;21.38;7.55;;;;;;;19.85;91.00;65067.28;5051001;28;20750;-52
2023/09/24 05:28:21;;;;;;;16.33;6.65;;;;;;;19.99;91.47;65085.88;5050603;28;20209;-52
2023/09/24 05:30:53;;;;;;;23.35;7.15;;;;;;;20.13;90.77;65100.22;5050338;28;20255;-53
2023/09/24 05:33:19;;;;;;;19.75;7.15;;;;;;;20.08;90.08;65095.78;5049947;28;20213;-51
2023/09/24 05:35:52;;;;;;;24.23;6.88;;;;;;;19.97;90.13;65081.09;5049933;28;20209;-50
2023/09/24 05:38:17;;;;;;;19.02;6.30;;;;;;;19.91;90.90;65071.34;5049739;28;20213;-51
2023/09/24 05:40:43;;;;;;;16.98;5.85;;;;;;;19.91;90.76;65074.47;5050014;28;20196;-54
2023/09/24 05:43:09;;;;;;;17.65;5.75;;;;;;;20.07;91.25;65089.03;5050014;28;20290;-54
2023/09/24 05:45:35;;;;;;;18.30;6.63;;;;;;;20.02;90.71;65086.59;5031897;28;20197;-54
2023/09/24 05:48:01;;;;;;;21.15;10.75;;;;;;;19.88;91.40;65073.16;5051068;28;20220;-55
2023/09/24 05:50:27;;;;;;;26.88;9.93;;;;;;;19.88;91.84;65073.16;5053006;28;20745;-53
2023/09/24 05:52:52;;;;;;;25.17;8.25;;;;;;;19.97;91.88;65078.53;5035189;28;20247;-54
2023/09/24 05:55:18;;;;;;;19.90;6.78;;;;;;;20.13;90.94;65098.22;5018783;28;20671;-54
2023/09/24 05:57:43;;;;;;;20.05;6.20;;;;;;;20.33;91.88;65120.34;5051885;28;20217;-54
2023/09/24 06:00:10;;;;;;;21.83;7.10;;;;;;;20.19;90.60;65101.72;5053206;28;20290;-54
2023/09/24 06:02:36;;;;;;;24.35;6.82;;;;;;;20.33;90.36;65120.34;5052739;28;20232;-55
2023/09/24 06:05:02;;;;;;;20.58;6.78;;;;;;;20.54;90.12;65145.56;5053161;28;20201;-53
2023/09/24 06:07:28;;;;;;;17.30;6.35;;;;;;;20.58;90.18;65150.50;5053047;28;20689;-52
2023/09/24 06:09:56;;;;;;;18.00;6.80;;;;;;;21.04;96.63;65195.72;5035196;28;20221;-54
2023/09/24 06:12:24;;;;;;;16.13;5.68;;;;;;;21.36;93.20;65233.66;5052724;28;20302;-51
2023/09/24 06:14:49;;;;;;;18.40;5.97;;;;;;;21.46;83.62;65241.59;5053181;28;20276;-56
2023/09/24 06:17:16;;;;;;;19.48;6.10;;;;;;;21.44;84.75;65242.50;5052872;28;20697;-54
2023/09/24 06:19:42;;;;;;;15.05;5.25;;;;;;;21.62;84.56;65262.44;5034946;28;20205;-55
2023/09/24 06:22:08;;;;;;;17.80;6.15;;;;;;;21.58;84.32;65257.44;5052941;28;20216;-55
2023/09/24 06:24:33;;;;;;;14.75;5.63;;;;;;;21.81;89.06;65282.34;5053052;28;20200;-52
2023/09/24 06:26:59;;;;;;;16.73;5.97;;;;;;;21.89;84.35;65291.78;5052634;28;20635;-51
2023/09/24 06:29:25;;;;;;;21.27;5.85;;;;;;;21.85;82.72;65287.34;5052404;28;20217;-52
2023/09/24 06:31:52;;;;;;;17.13;5.10;;;;;;;22.23;90.60;65328.84;5052344;28;20201;-52
2023/09/24 06:34:18;;;;;;;17.45;5.72;;;;;;;22.85;95.31;65394.38;5052655;28;20204;-51
2023/09/24 06:36:45;;;;;;;15.32;6.20;;;;;;;22.84;77.89;65395.84;5052332;28;20284;-51
2023/09/24 06:39:13;;;;;;;17.92;6.18;;;;;;;22.76;85.25;65390.13;5052697;28;20228;-53
2023/09/24 06:41:40;;;;;;;17.05;5.70;;;;;;;22.96;86.20;65407.13;5052210;28;20214;-51
2023/09/24 06:44:10;;;;;;;18.42;7.10;;;;;;;22.99;75.33;65410.44;5052383;28;20194;-52
2023/09/24 06:46:37;;;;;;;19.75;6.05;;;;;;;22.66;77.66;65376.47;5052241;28;20209;-52
2023/09/24 06:49:02;;;;;;;20.35;6.63;;;;;;;22.68;78.99;65378.69;5052513;28;20252;-50
2023/09/24 06:51:28;;;;;;;16.67;6.05;;;;;;;22.63;78.93;65375.16;5034411;28;20244;-53
2023/09/24 06:53:54;;;;;;;20.92;6.82;;;;;;;22.43;79.89;65348.97;5034442;28;20206;-51
2023/09/24 06:56:19;;;;;;;17.67;5.97;;;;;;;22.45;78.72;65350.63;5052032;28;20209;-52
2023/09/24 06:58:45;;;;;;;16.48;6.43;;;;;;;22.36;80.58;65341.22;5051940;28;20293;-51
2023/09/24 07:01:11;;;;;;;18.70;6.82;;;;;;;22.43;81.32;65348.41;5033151;28;20316;-51
2023/09/24 07:03:37;;;;;;;21.63;6.40;;;;;;;22.49;81.80;65355.06;5034731;28;20284;-51
2023/09/24 07:06:06;;;;;;;16.42;6.90;;;;;;;22.67;81.31;65379.59;5052035;28;20205;-55
2023/09/24 07:08:36;;;;;;;17.02;6.38;;;;;;;22.64;81.95;65376.81;5034845;28;20221;-51
2023/09/24 07:11:22;;;;;;;24.95;6.55;;;;;;;22.79;80.70;65388.28;5033942;28;20316;-55
2023/09/24 07:13:49;;;;;;;22.63;7.03;;;;;;;22.80;79.66;65388.84;5052270;28;20185;-52
2023/09/24 07:16:15;;;;;;;25.27;7.10;;;;;;;23.00;79.56;65411.56;5052256;28;20221;-57
2023/09/24 07:18:41;;;;;;;21.17;6.28;;;;;;;22.97;80.34;65410.78;5034087;28;20204;-56
2023/09/24 07:21:06;;;;;;;17.20;6.63;;;;;;;23.07;79.41;65421.88;5051877;28;20209;-56
2023/09/24 07:23:32;;;;;;;17.52;6.50;;;;;;;23.06;79.62;65422.78;5034110;28;20274;-51
2023/09/24 07:25:58;;;;;;;25.10;6.93;;;;;;;23.19;79.70;65432.59;5051964;28;20280;-51
2023/09/24 07:28:25;;;;;;;17.42;6.25;;;;;;;23.37;78.49;65451.44;5051837;28;20209;-53
2023/09/24 07:30:52;;;;;;;13.95;6.43;;;;;;;23.51;77.73;65466.97;5052128;28;20587;-52
2023/09/24 07:33:23;;;;;;;30.27;7.38;;;;;;;23.65;77.36;65483.03;5051977;28;20267;-53
2023/09/24 07:35:49;;;;;;;20.63;7.28;;;;;;;23.79;77.02;65498.56;5051841;28;20237;-52
2023/09/24 07:38:16;;;;;;;14.35;5.68;;;;;;;23.85;75.77;65507.22;5051910;28;20220;-51
2023/09/24 07:40:43;;;;;;;22.33;6.57;;;;;;;23.85;75.14;65505.22;5033426;28;20209;-52
2023/09/24 07:43:09;;;;;;;17.13;6.13;;;;;;;24.06;75.31;65527.94;5033873;28;20220;-52
2023/09/24 07:45:37;;;;;;;19.80;6.30;;;;;;;24.26;72.16;65550.09;5051758;28;20205;-52
2023/09/24 07:48:06;;;;;;;19.05;5.80;;;;;;;24.20;73.88;65543.47;5051639;28;20228;-52
2023/09/24 07:50:32;;;;;;;17.50;6.22;;;;;;;24.45;73.60;65570.63;5051534;28;20358;-52
2023/09/24 07:52:58;;;;;;;20.60;6.78;;;;;;;24.78;70.77;65605.25;5051388;28;20269;-54
2023/09/24 07:55:23;;;;;;;20.38;5.82;;;;;;;24.89;69.62;65619.47;5050177;28;20237;-54
2023/09/24 07:57:49;;;;;;;14.13;6.43;;;;;;;25.05;68.69;65637.22;5051586;28;20208;-55
2023/09/24 08:00:14;;;;;;;14.15;5.82;;;;;;;25.21;66.75;65654.41;5051156;28;20198;-55
2023/09/24 08:02:40;;;;;;;15.70;6.07;;;;;;;25.21;67.96;65654.97;5051347;28;20289;-54
2023/09/24 08:05:06;;;;;;;21.30;5.72;;;;;;;25.36;65.22;65669.03;5051184;28;20213;-53
2023/09/24 08:07:32;;;;;;;17.25;6.10;;;;;;;25.53;67.17;65687.38;5051136;28;20263;-54
2023/09/24 08:09:59;;;;;;;22.92;6.85;;;;;;;25.80;65.39;65723.06;5051121;28;20583;-55
2023/09/24 08:12:25;;;;;;;16.15;5.68;;;;;;;25.93;63.48;65734.38;5051215;28;20579;-55
2023/09/24 08:14:51;;;;;;;14.77;5.82;;;;;;;26.00;63.44;65742.13;5034723;28;20683;-53
2023/09/24 08:17:16;;;;;;;14.85;6.20;;;;;;;26.08;62.90;65753.63;5050973;28;20232;-53
2023/09/24 08:19:42;;;;;;;22.90;6.00;;;;;;;26.26;62.93;65765.84;5051015;28;20259;-52
2023/09/24 08:22:08;;;;;;;18.45;6.32;;;;;;;26.26;62.15;65770.50;5051073;28;20279;-53
2023/09/24 08:24:33;;;;;;;15.60;5.43;;;;;;;26.26;62.59;65773.06;5050905;28;20208;-53
2023/09/24 08:26:59;;;;;;;18.77;6.43;;;;;;;26.34;60.38;65779.91;5050866;28;20217;-52
2023/09/24 08:29:25;;;;;;;17.33;5.75;;;;;;;26.28;61.31;65770.66;5050738;28;20244;-53
2023/09/24 08:31:50;;;;;;;19.50;6.38;;;;;;;26.27;60.34;65772.16;5050638;28;20252;-52
2023/09/24 08:34:17;;;;;;;23.15;6.28;;;;;;;26.26;59.75;65768.44;5049452;28;20695;-53
2023/09/24 08:36:43;;;;;;;16.80;5.97;;;;;;;26.26;61.14;65771.03;5032800;28;20315;-52
2023/09/24 08:39:08;;;;;;;15.23;5.50;;;;;;;26.19;61.31;65762.69;5050555;28;20197;-53
2023/09/24 08:41:43;;;;;;;22.80;6.28;;;;;;;26.04;61.32;65748.63;5032416;28;20208;-52
2023/09/24 08:44:15;;;;;;;20.45;5.78;;;;;;;26.08;61.98;65748.44;5050602;28;20729;-53
2023/09/24 08:46:42;;;;;;;15.30;6.60;;;;;;;26.03;60.90;65744.91;5032431;28;20220;-53
2023/09/24 08:49:08;;;;;;;21.77;6.93;;;;;;;25.85;62.60;65724.94;5050268;28;20265;-52
2023/09/24 08:51:35;;;;;;;21.05;6.30;;;;;;;25.97;62.68;65738.25;5050278;28;20229;-53
2023/09/24 08:54:01;;;;;;;14.07;6.47;;;;;;;25.95;62.41;65736.59;5050449;28;20701;-52
2023/09/24 08:56:27;;;;;;;20.27;6.20;;;;;;;25.88;62.98;65728.81;5050276;28;20205;-54
2023/09/24 08:58:54;;;;;;;15.88;7.35;;;;;;;25.94;62.98;65734.94;5050581;28;20285;-52
2023/09/24 09:01:20;;;;;;;15.40;6.15;;;;;;;25.94;62.98;65732.34;5050341;28;20212;-53
2023/09/24 09:03:47;;;;;;;19.27;5.55;;;;;;;25.87;62.77;65729.72;5050357;28;20236;-52
2023/09/24 09:06:30;;;;;;;18.92;6.07;;;;;;;25.73;62.35;65712.69;5050000;28;20194;-53
2023/09/24 09:08:56;;;;;;;19.88;6.40;;;;;;;25.80;63.18;65719.94;5050380;28;20328;-53
2023/09/24 09:11:22;;;;;;;23.27;6.53;;;;;;;25.84;62.00;65723.81;5032497;28;20727;-52
2023/09/24 09:13:52;;;;;;;15.15;5.80;;;;;;;25.61;63.44;65701.41;5050446;28;20205;-52
2023/09/24 09:16:20;;;;;;;23.25;5.88;;;;;;;25.72;61.38;65705.88;5050232;28;20718;-52
2023/09/24 09:19:00;;;;;;;20.38;6.10;;;;;;;25.83;61.56;65725.28;5032219;28;20209;-52
2023/09/24 09:21:25;;;;;;;24.73;5.50;;;;;;;25.86;61.85;65726.03;5050042;28;20208;-51
2023/09/24 09:23:51;;;;;;;11.18;5.80;;;;;;;25.91;62.73;65731.59;5051934;28;20201;-58
2023/09/24 09:26:16;;;;;;;19.38;6.80;;;;;;;25.87;63.30;65727.72;5053672;28;20216;-53
2023/09/24 09:28:42;;;;;;;15.93;5.60;;;;;;;25.90;63.70;65733.06;5053296;28;20225;-53
2023/09/24 09:31:10;;;;;;;15.23;5.53;;;;;;;25.95;62.00;65733.44;5053378;28;20247;-52
2023/09/24 09:33:43;;;;;;;18.10;5.80;;;;;;;26.20;61.09;65764.38;5053885;28;20198;-53
2023/09/24 09:36:30;;;;;;;20.15;5.80;;;;;;;26.10;60.80;65753.25;5053516;28;20217;-51
2023/09/24 09:38:57;;;;;;;14.68;5.35;;;;;;;26.44;58.34;65790.47;5053277;28;20213;-53
2023/09/24 09:41:24;;;;;;;18.38;6.22;;;;;;;26.44;58.65;65791.03;5046826;22;20193;-52
2023/09/24 09:43:53;;;;;;;17.35;6.15;;;;;;;26.56;59.33;65806.41;5073149;28;20275;-53
2023/09/24 09:46:22;;;;;;;18.63;5.70;;;;;;;26.59;57.55;65805.13;5069938;28;20205;-52
2023/09/24 09:48:54;;;;;;;19.67;6.07;;;;;;;26.78;57.03;65825.69;5053351;28;20212;-53
2023/09/24 09:51:20;;;;;;;20.08;7.40;;;;;;;26.73;56.54;65819.56;5052937;28;20217;-53
2023/09/24 09:53:47;;;;;;;18.75;6.18;;;;;;;26.77;56.23;65824.00;5053096;28;20280;-53
2023/09/24 09:56:24;;;;;;;22.52;5.43;;;;;;;27.18;54.00;65869.59;5053094;28;20274;-52
2023/09/24 09:58:51;;;;;;;24.13;6.13;;;;;;;27.28;54.60;65881.28;5053040;28;20745;-52
2023/09/24 10:01:20;;;;;;;13.50;5.35;;;;;;;27.36;54.44;65892.22;5053343;28;20209;-52
2023/09/24 10:03:50;;;;;;;22.10;6.57;;;;;;;27.25;54.82;65880.50;5053060;28;20197;-52
2023/09/24 10:06:17;;;;;;;26.38;6.78;;;;;;;27.26;54.52;65881.06;5053037;28;20270;-52
2023/09/24 10:08:45;;;;;;;20.77;6.03;;;;;;;27.39;53.71;65895.56;5053242;28;20228;-52
2023/09/24 10:11:32;;;;;;;23.15;5.80;;;;;;;27.47;54.10;65904.47;5053118;28;20225;-52
2023/09/24 10:14:05;;;;;;;19.98;5.55;;;;;;;27.40;51.67;65896.66;5052972;28;20215;-57
2023/09/24 10:16:35;;;;;;;17.90;6.00;;;;;;;27.13;51.94;65866.63;5053073;28;20267;-55
2023/09/24 10:19:09;;;;;;;16.80;6.38;;;;;;;27.15;52.29;65868.84;5052715;28;20201;-52
2023/09/24 10:21:36;;;;;;;22.00;6.35;;;;;;;27.22;52.77;65874.03;5052660;28;20213;-52
2023/09/24 10:24:14;;;;;;;18.77;6.25;;;;;;;27.17;52.13;65871.63;5034534;28;20278;-52
2023/09/24 10:26:50;;;;;;;15.32;5.68;;;;;;;26.91;53.14;65842.72;5052977;28;20667;-52
2023/09/24 10:29:17;;;;;;;16.45;8.55;;;;;;;26.76;53.79;65825.50;5052577;28;20228;-59
2023/09/24 10:32:11;;;;;;;18.30;6.28;;;;;;;26.78;54.38;65827.72;5052323;28;20209;-54
2023/09/24 10:34:59;;;;;;;15.38;6.82;;;;;;;26.81;55.10;65831.03;5052281;28;20214;-53
2023/09/24 10:37:30;;;;;;;17.55;6.13;;;;;;;26.79;56.61;65826.78;5052782;28;20635;-52
2023/09/24 10:40:04;;;;;;;16.08;6.40;;;;;;;26.80;55.81;65829.94;5034458;28;20312;-51
2023/09/24 10:42:38;;;;;;;17.05;5.63;;;;;;;26.94;54.84;65842.91;5052256;28;20201;-51
2023/09/24 10:45:07;;;;;;;23.20;6.15;;;;;;;26.85;55.44;65832.91;5052374;28;20198;-53
2023/09/24 10:47:42;;;;;;;23.15;6.05;;;;;;;26.75;55.18;65822.34;5052075;28;20223;-54
2023/09/24 10:50:19;;;;;;;21.52;5.78;;;;;;;26.94;54.48;65845.50;5052071;28;20224;-53
2023/09/24 10:53:01;;;;;;;13.50;5.88;;;;;;;26.98;54.61;65850.50;5052096;28;20298;-56
2023/09/24 10:55:29;;;;;;;18.23;5.88;;;;;;;27.01;54.63;65853.28;5052112;28;20213;-52
2023/09/24 10:57:57;;;;;;;18.85;6.50;;;;;;;27.07;54.15;65859.97;5052269;28;20217;-52
2023/09/24 11:00:25;;;;;;;17.73;6.05;;;;;;;27.07;55.05;65860.50;5051807;28;20247;-52
2023/09/24 11:03:04;;;;;;;19.38;6.05;;;;;;;27.06;55.08;65859.41;5051712;28;20231;-52
2023/09/24 11:05:40;;;;;;;23.90;6.82;;;;;;;27.08;55.13;65861.63;5050519;28;20213;-52
2023/09/24 11:08:06;;;;;;;25.00;5.55;;;;;;;27.12;55.10;65862.91;5051915;28;20208;-53
2023/09/24 11:10:32;;;;;;;20.15;6.47;;;;;;;27.05;52.98;65858.28;5051903;28;20197;-57
2023/09/24 11:13:00;;;;;;;17.70;6.00;;;;;;;27.07;53.26;65859.97;5051744;28;20205;-53
2023/09/24 11:15:32;;;;;;;19.48;5.68;;;;;;;26.91;52.78;65839.56;5051849;28;20227;-53
2023/09/24 11:17:58;;;;;;;18.30;5.50;;;;;;;26.98;53.64;65850.50;5051694;28;20205;-52
2023/09/24 11:20:25;;;;;;;21.30;6.22;;;;;;;26.98;53.84;65849.94;5051701;28;20196;-54
2023/09/24 11:22:58;;;;;;;16.90;6.15;;;;;;;26.99;53.39;65851.63;5051943;28;20301;-53
2023/09/24 11:25:24;;;;;;;18.00;5.93;;;;;;;26.84;54.65;65831.81;5051966;28;20205;-53
2023/09/24 11:27:52;;;;;;;15.02;5.88;;;;;;;26.96;54.35;65850.88;5052086;28;20281;-52
2023/09/24 11:30:22;;;;;;;13.35;5.43;;;;;;;27.03;52.82;65853.47;5051283;28;20232;-52
2023/09/24 11:32:50;;;;;;;22.35;5.90;;;;;;;27.07;53.31;65859.97;5051612;28;20210;-52